FASB

Springbok Airport

Springbok, South Africa
METAR FASB 190347Z 15003KT 9999 OVC010 09/07 Q1021
Observed Flight Rules
Jun-19 @ 03:47 UTC (16 hours ago) Marginal Visual Flight Rules
Wind Visibility Clouds
150° at 3 knots 10,000+ meters
  • Overcast at 1,000' AGL
Temperatures Readings
Current 9°C / 48°F
Dewpoint 7°C / 45°F
Humidity 87%
Altimeter 30.15" Hg
Pressure 1021 hPa
Elevation 813
METAR FASB 190347Z 15003KT 9999 OVC010 09/07 Q1021
Observed Flight Rules
Jun-19 @ 03:47 UTC
(16 hours ago)
MVFR
Wind Visibility
150° at 3 knots 10,000+ meters
Clouds
  • Overcast at 1,000' AGL
Temperature Dewpoint
9°C / 48°F 7°C / 45°F
Humidity Altimeter Pressure
87% 30.15" Hg 1021 hPa